sensor_id;sensor_type;location;lat;lon;timestamp;P1;durP1;ratioP1;P2;durP2;ratioP2
75932;SDS011;64803;52.356;5.310;2023-08-08T00:02:22;15.18;;;4.20;;
75932;SDS011;64803;52.356;5.310;2023-08-08T00:04:48;16.30;;;4.50;;
75932;SDS011;64803;52.356;5.310;2023-08-08T00:09:41;21.33;;;4.22;;
75932;SDS011;64803;52.356;5.310;2023-08-08T00:12:07;16.98;;;4.57;;
75932;SDS011;64803;52.356;5.310;2023-08-08T00:14:33;15.90;;;4.55;;
75932;SDS011;64803;52.356;5.310;2023-08-08T00:16:59;20.33;;;4.38;;
75932;SDS011;64803;52.356;5.310;2023-08-08T00:19:25;18.77;;;4.55;;
75932;SDS011;64803;52.356;5.310;2023-08-08T00:21:51;12.82;;;4.43;;
75932;SDS011;64803;52.356;5.310;2023-08-08T00:24:17;16.05;;;5.63;;
75932;SDS011;64803;52.356;5.310;2023-08-08T00:26:43;18.92;;;4.95;;
75932;SDS011;64803;52.356;5.310;2023-08-08T00:29:09;17.42;;;4.80;;
75932;SDS011;64803;52.356;5.310;2023-08-08T00:31:35;13.13;;;4.30;;
75932;SDS011;64803;52.356;5.310;2023-08-08T00:34:01;12.13;;;4.18;;
75932;SDS011;64803;52.356;5.310;2023-08-08T00:36:27;13.13;;;4.00;;
75932;SDS011;64803;52.356;5.310;2023-08-08T00:38:54;11.80;;;4.10;;
75932;SDS011;64803;52.356;5.310;2023-08-08T00:41:20;13.85;;;4.05;;
75932;SDS011;64803;52.356;5.310;2023-08-08T00:43:46;14.93;;;3.60;;
75932;SDS011;64803;52.356;5.310;2023-08-08T00:46:12;14.68;;;3.83;;
75932;SDS011;64803;52.356;5.310;2023-08-08T00:48:38;15.43;;;3.88;;
75932;SDS011;64803;52.356;5.310;2023-08-08T00:51:04;12.50;;;3.75;;
75932;SDS011;64803;52.356;5.310;2023-08-08T00:53:31;16.08;;;3.85;;
75932;SDS011;64803;52.356;5.310;2023-08-08T00:55:59;11.85;;;4.00;;
75932;SDS011;64803;52.356;5.310;2023-08-08T00:58:26;17.48;;;3.75;;
75932;SDS011;64803;52.356;5.310;2023-08-08T01:00:52;9.70;;;3.20;;
75932;SDS011;64803;52.356;5.310;2023-08-08T01:03:22;12.38;;;3.58;;
75932;SDS011;64803;52.356;5.310;2023-08-08T01:05:51;14.05;;;4.18;;
75932;SDS011;64803;52.356;5.310;2023-08-08T01:08:25;12.93;;;3.63;;
75932;SDS011;64803;52.356;5.310;2023-08-08T01:10:57;12.48;;;3.42;;
75932;SDS011;64803;52.356;5.310;2023-08-08T01:13:23;15.18;;;3.75;;
75932;SDS011;64803;52.356;5.310;2023-08-08T01:15:53;13.93;;;3.63;;
75932;SDS011;64803;52.356;5.310;2023-08-08T01:18:23;14.95;;;4.43;;
75932;SDS011;64803;52.356;5.310;2023-08-08T01:25:58;16.27;;;3.45;;
75932;SDS011;64803;52.356;5.310;2023-08-08T01:28:25;11.43;;;3.15;;
75932;SDS011;64803;52.356;5.310;2023-08-08T01:30:52;12.48;;;3.17;;
75932;SDS011;64803;52.356;5.310;2023-08-08T01:33:19;9.55;;;2.80;;
75932;SDS011;64803;52.356;5.310;2023-08-08T01:35:53;15.98;;;3.40;;
75932;SDS011;64803;52.356;5.310;2023-08-08T01:38:36;9.98;;;2.97;;
75932;SDS011;64803;52.356;5.310;2023-08-08T01:41:04;8.68;;;2.58;;
75932;SDS011;64803;52.356;5.310;2023-08-08T01:43:32;9.15;;;2.35;;
75932;SDS011;64803;52.356;5.310;2023-08-08T01:45:59;10.48;;;2.63;;
75932;SDS011;64803;52.356;5.310;2023-08-08T01:48:27;7.03;;;2.38;;
75932;SDS011;64803;52.356;5.310;2023-08-08T01:50:53;9.23;;;2.47;;
75932;SDS011;64803;52.356;5.310;2023-08-08T01:53:19;8.98;;;2.63;;
75932;SDS011;64803;52.356;5.310;2023-08-08T01:55:45;9.27;;;2.67;;
75932;SDS011;64803;52.356;5.310;2023-08-08T01:58:11;8.88;;;2.40;;
75932;SDS011;64803;52.356;5.310;2023-08-08T02:00:37;8.20;;;2.20;;
75932;SDS011;64803;52.356;5.310;2023-08-08T02:03:03;9.00;;;2.30;;
75932;SDS011;64803;52.356;5.310;2023-08-08T02:05:29;6.63;;;2.13;;
75932;SDS011;64803;52.356;5.310;2023-08-08T02:07:56;8.63;;;2.47;;
75932;SDS011;64803;52.356;5.310;2023-08-08T02:10:23;8.63;;;1.83;;
75932;SDS011;64803;52.356;5.310;2023-08-08T02:12:49;9.98;;;2.00;;
75932;SDS011;64803;52.356;5.310;2023-08-08T02:15:15;5.93;;;2.13;;
75932;SDS011;64803;52.356;5.310;2023-08-08T02:17:41;9.00;;;2.20;;
75932;SDS011;64803;52.356;5.310;2023-08-08T02:20:07;8.93;;;1.80;;
75932;SDS011;64803;52.356;5.310;2023-08-08T02:22:34;10.77;;;1.90;;
75932;SDS011;64803;52.356;5.310;2023-08-08T02:25:00;7.35;;;1.90;;
75932;SDS011;64803;52.356;5.310;2023-08-08T02:27:26;7.53;;;2.05;;
75932;SDS011;64803;52.356;5.310;2023-08-08T02:29:52;8.73;;;2.08;;
75932;SDS011;64803;52.356;5.310;2023-08-08T02:32:19;8.57;;;1.75;;
75932;SDS011;64803;52.356;5.310;2023-08-08T02:34:45;7.70;;;2.55;;
75932;SDS011;64803;52.356;5.310;2023-08-08T02:37:12;7.88;;;1.85;;
75932;SDS011;64803;52.356;5.310;2023-08-08T02:39:42;8.38;;;2.95;;
75932;SDS011;64803;52.356;5.310;2023-08-08T02:42:09;9.75;;;1.80;;
75932;SDS011;64803;52.356;5.310;2023-08-08T02:44:35;8.75;;;2.00;;
75932;SDS011;64803;52.356;5.310;2023-08-08T02:47:01;6.45;;;1.50;;
75932;SDS011;64803;52.356;5.310;2023-08-08T02:49:28;8.52;;;1.60;;
75932;SDS011;64803;52.356;5.310;2023-08-08T02:51:54;8.25;;;1.90;;
75932;SDS011;64803;52.356;5.310;2023-08-08T02:54:21;4.72;;;1.65;;
75932;SDS011;64803;52.356;5.310;2023-08-08T02:56:47;9.88;;;2.22;;
75932;SDS011;64803;52.356;5.310;2023-08-08T02:59:14;9.25;;;1.70;;
75932;SDS011;64803;52.356;5.310;2023-08-08T03:01:40;16.17;;;2.00;;
75932;SDS011;64803;52.356;5.310;2023-08-08T03:04:15;6.32;;;1.50;;
75932;SDS011;64803;52.356;5.310;2023-08-08T03:06:41;10.90;;;1.60;;
75932;SDS011;64803;52.356;5.310;2023-08-08T03:09:07;9.02;;;1.58;;
75932;SDS011;64803;52.356;5.310;2023-08-08T03:11:35;9.18;;;1.70;;
75932;SDS011;64803;52.356;5.310;2023-08-08T03:14:04;7.53;;;1.65;;
75932;SDS011;64803;52.356;5.310;2023-08-08T03:18:57;4.95;;;1.33;;
75932;SDS011;64803;52.356;5.310;2023-08-08T03:21:24;6.53;;;1.48;;
75932;SDS011;64803;52.356;5.310;2023-08-08T03:23:51;7.45;;;1.30;;
75932;SDS011;64803;52.356;5.310;2023-08-08T03:26:17;6.90;;;1.20;;
75932;SDS011;64803;52.356;5.310;2023-08-08T03:28:44;6.88;;;1.45;;
75932;SDS011;64803;52.356;5.310;2023-08-08T03:31:10;6.85;;;1.30;;
75932;SDS011;64803;52.356;5.310;2023-08-08T03:33:36;4.43;;;0.93;;
75932;SDS011;64803;52.356;5.310;2023-08-08T03:36:03;9.77;;;1.38;;
75932;SDS011;64803;52.356;5.310;2023-08-08T03:38:29;6.95;;;1.08;;
75932;SDS011;64803;52.356;5.310;2023-08-08T03:40:56;5.82;;;1.35;;
75932;SDS011;64803;52.356;5.310;2023-08-08T03:43:22;5.82;;;1.23;;
75932;SDS011;64803;52.356;5.310;2023-08-08T03:45:49;9.38;;;1.17;;
75932;SDS011;64803;52.356;5.310;2023-08-08T03:48:15;6.45;;;1.17;;
75932;SDS011;64803;52.356;5.310;2023-08-08T03:50:41;6.78;;;1.20;;
75932;SDS011;64803;52.356;5.310;2023-08-08T03:53:07;8.50;;;1.30;;
75932;SDS011;64803;52.356;5.310;2023-08-08T03:55:33;8.40;;;1.45;;
75932;SDS011;64803;52.356;5.310;2023-08-08T03:57:59;4.78;;;1.20;;
75932;SDS011;64803;52.356;5.310;2023-08-08T04:00:25;7.18;;;1.50;;
75932;SDS011;64803;52.356;5.310;2023-08-08T04:02:51;7.60;;;1.30;;
75932;SDS011;64803;52.356;5.310;2023-08-08T04:05:18;5.93;;;0.90;;
75932;SDS011;64803;52.356;5.310;2023-08-08T04:07:44;9.68;;;1.20;;
75932;SDS011;64803;52.356;5.310;2023-08-08T04:10:11;7.82;;;1.05;;
75932;SDS011;64803;52.356;5.310;2023-08-08T04:12:37;3.88;;;1.05;;
75932;SDS011;64803;52.356;5.310;2023-08-08T04:15:03;11.70;;;1.15;;
75932;SDS011;64803;52.356;5.310;2023-08-08T04:17:29;5.43;;;1.00;;
75932;SDS011;64803;52.356;5.310;2023-08-08T04:19:55;4.15;;;0.90;;
75932;SDS011;64803;52.356;5.310;2023-08-08T04:22:21;6.90;;;1.08;;
75932;SDS011;64803;52.356;5.310;2023-08-08T04:24:47;4.28;;;0.90;;
75932;SDS011;64803;52.356;5.310;2023-08-08T04:27:13;4.70;;;0.85;;
75932;SDS011;64803;52.356;5.310;2023-08-08T04:29:39;5.97;;;0.98;;
75932;SDS011;64803;52.356;5.310;2023-08-08T04:32:05;3.92;;;1.13;;
75932;SDS011;64803;52.356;5.310;2023-08-08T04:34:31;5.22;;;1.13;;
75932;SDS011;64803;52.356;5.310;2023-08-08T04:36:57;7.45;;;1.00;;
75932;SDS011;64803;52.356;5.310;2023-08-08T04:39:23;5.38;;;1.08;;
75932;SDS011;64803;52.356;5.310;2023-08-08T04:41:49;8.48;;;0.90;;
75932;SDS011;64803;52.356;5.310;2023-08-08T04:44:15;6.25;;;1.17;;
75932;SDS011;64803;52.356;5.310;2023-08-08T04:46:41;7.57;;;1.17;;
75932;SDS011;64803;52.356;5.310;2023-08-08T04:49:07;5.95;;;1.10;;
75932;SDS011;64803;52.356;5.310;2023-08-08T04:51:33;5.35;;;1.10;;
75932;SDS011;64803;52.356;5.310;2023-08-08T04:53:59;6.03;;;1.02;;
75932;SDS011;64803;52.356;5.310;2023-08-08T04:56:25;6.38;;;1.52;;
75932;SDS011;64803;52.356;5.310;2023-08-08T04:58:51;6.72;;;1.30;;
75932;SDS011;64803;52.356;5.310;2023-08-08T05:01:17;10.82;;;1.38;;
75932;SDS011;64803;52.356;5.310;2023-08-08T05:03:46;5.00;;;1.05;;
75932;SDS011;64803;52.356;5.310;2023-08-08T05:06:12;7.93;;;1.30;;
75932;SDS011;64803;52.356;5.310;2023-08-08T05:08:38;4.15;;;1.02;;
75932;SDS011;64803;52.356;5.310;2023-08-08T05:11:04;6.30;;;1.27;;
75932;SDS011;64803;52.356;5.310;2023-08-08T05:13:30;7.20;;;1.73;;
75932;SDS011;64803;52.356;5.310;2023-08-08T05:15:56;6.47;;;1.08;;
75932;SDS011;64803;52.356;5.310;2023-08-08T05:18:22;7.07;;;1.30;;
75932;SDS011;64803;52.356;5.310;2023-08-08T05:20:48;6.28;;;1.23;;
75932;SDS011;64803;52.356;5.310;2023-08-08T05:23:13;5.35;;;0.93;;
75932;SDS011;64803;52.356;5.310;2023-08-08T05:25:40;8.55;;;1.20;;
75932;SDS011;64803;52.356;5.310;2023-08-08T05:28:06;6.60;;;1.40;;
75932;SDS011;64803;52.356;5.310;2023-08-08T05:30:33;7.50;;;1.42;;
75932;SDS011;64803;52.356;5.310;2023-08-08T05:32:59;7.32;;;1.35;;
75932;SDS011;64803;52.356;5.310;2023-08-08T05:35:25;8.40;;;1.50;;
75932;SDS011;64803;52.356;5.310;2023-08-08T05:37:51;8.32;;;1.10;;
75932;SDS011;64803;52.356;5.310;2023-08-08T05:40:17;3.83;;;0.93;;
75932;SDS011;64803;52.356;5.310;2023-08-08T05:42:43;9.52;;;1.20;;
75932;SDS011;64803;52.356;5.310;2023-08-08T05:45:09;5.30;;;1.63;;
75932;SDS011;64803;52.356;5.310;2023-08-08T05:47:35;7.22;;;1.48;;
75932;SDS011;64803;52.356;5.310;2023-08-08T05:50:01;7.82;;;1.40;;
75932;SDS011;64803;52.356;5.310;2023-08-08T05:52:27;5.15;;;1.20;;
75932;SDS011;64803;52.356;5.310;2023-08-08T05:54:54;5.20;;;1.08;;
75932;SDS011;64803;52.356;5.310;2023-08-08T05:57:20;6.55;;;1.20;;
75932;SDS011;64803;52.356;5.310;2023-08-08T05:59:47;3.08;;;0.95;;
75932;SDS011;64803;52.356;5.310;2023-08-08T06:02:15;7.45;;;1.50;;
75932;SDS011;64803;52.356;5.310;2023-08-08T06:04:41;7.53;;;1.42;;
75932;SDS011;64803;52.356;5.310;2023-08-08T06:07:07;7.53;;;1.20;;
75932;SDS011;64803;52.356;5.310;2023-08-08T06:09:33;4.13;;;1.00;;
75932;SDS011;64803;52.356;5.310;2023-08-08T06:11:59;6.43;;;1.25;;
75932;SDS011;64803;52.356;5.310;2023-08-08T06:14:25;5.38;;;1.20;;
75932;SDS011;64803;52.356;5.310;2023-08-08T06:16:51;8.10;;;1.25;;
75932;SDS011;64803;52.356;5.310;2023-08-08T06:19:17;7.55;;;1.20;;
75932;SDS011;64803;52.356;5.310;2023-08-08T06:21:44;6.55;;;1.05;;
75932;SDS011;64803;52.356;5.310;2023-08-08T06:24:11;5.20;;;1.30;;
75932;SDS011;64803;52.356;5.310;2023-08-08T06:26:37;5.03;;;1.27;;
75932;SDS011;64803;52.356;5.310;2023-08-08T06:29:03;7.32;;;1.13;;
75932;SDS011;64803;52.356;5.310;2023-08-08T06:31:29;3.45;;;0.90;;
75932;SDS011;64803;52.356;5.310;2023-08-08T06:33:55;4.75;;;0.98;;
75932;SDS011;64803;52.356;5.310;2023-08-08T06:36:21;7.13;;;0.88;;
75932;SDS011;64803;52.356;5.310;2023-08-08T06:38:47;8.82;;;1.00;;
75932;SDS011;64803;52.356;5.310;2023-08-08T06:41:13;5.22;;;0.98;;
75932;SDS011;64803;52.356;5.310;2023-08-08T06:43:40;5.70;;;1.13;;
75932;SDS011;64803;52.356;5.310;2023-08-08T06:46:07;1.85;;;0.35;;
75932;SDS011;64803;52.356;5.310;2023-08-08T06:48:33;6.80;;;0.93;;
75932;SDS011;64803;52.356;5.310;2023-08-08T06:50:59;4.88;;;0.73;;
75932;SDS011;64803;52.356;5.310;2023-08-08T06:53:25;4.68;;;0.80;;
75932;SDS011;64803;52.356;5.310;2023-08-08T06:55:51;4.43;;;0.80;;
75932;SDS011;64803;52.356;5.310;2023-08-08T06:58:17;5.70;;;1.02;;
75932;SDS011;64803;52.356;5.310;2023-08-08T07:00:43;4.25;;;0.70;;
75932;SDS011;64803;52.356;5.310;2023-08-08T07:03:10;4.95;;;1.02;;
75932;SDS011;64803;52.356;5.310;2023-08-08T07:05:36;2.08;;;0.65;;
75932;SDS011;64803;52.356;5.310;2023-08-08T07:08:05;6.18;;;0.90;;
75932;SDS011;64803;52.356;5.310;2023-08-08T07:10:31;4.68;;;0.80;;
75932;SDS011;64803;52.356;5.310;2023-08-08T07:12:57;2.17;;;0.68;;
75932;SDS011;64803;52.356;5.310;2023-08-08T07:15:23;2.97;;;0.57;;
75932;SDS011;64803;52.356;5.310;2023-08-08T07:17:49;6.32;;;0.70;;
75932;SDS011;64803;52.356;5.310;2023-08-08T07:20:15;4.60;;;0.65;;
75932;SDS011;64803;52.356;5.310;2023-08-08T07:22:41;3.20;;;0.60;;
75932;SDS011;64803;52.356;5.310;2023-08-08T07:25:07;3.55;;;0.93;;
75932;SDS011;64803;52.356;5.310;2023-08-08T07:27:34;2.20;;;0.52;;
75932;SDS011;64803;52.356;5.310;2023-08-08T07:30:00;4.28;;;0.90;;
75932;SDS011;64803;52.356;5.310;2023-08-08T07:32:26;3.42;;;1.42;;
75932;SDS011;64803;52.356;5.310;2023-08-08T07:37:36;3.28;;;0.55;;
75932;SDS011;64803;52.356;5.310;2023-08-08T08:06:24;3.85;;;0.50;;
75932;SDS011;64803;52.356;5.310;2023-08-08T08:08:55;6.63;;;1.35;;
75932;SDS011;64803;52.356;5.310;2023-08-08T08:16:35;4.05;;;0.70;;
75932;SDS011;64803;52.356;5.310;2023-08-08T08:19:02;3.42;;;0.75;;
75932;SDS011;64803;52.356;5.310;2023-08-08T08:21:28;3.60;;;0.68;;
75932;SDS011;64803;52.356;5.310;2023-08-08T08:23:54;7.57;;;0.85;;
75932;SDS011;64803;52.356;5.310;2023-08-08T08:26:20;4.32;;;0.85;;
75932;SDS011;64803;52.356;5.310;2023-08-08T08:28:46;4.20;;;0.82;;
75932;SDS011;64803;52.356;5.310;2023-08-08T08:31:12;2.83;;;0.50;;
75932;SDS011;64803;52.356;5.310;2023-08-08T08:33:38;1.20;;;0.55;;
75932;SDS011;64803;52.356;5.310;2023-08-08T08:36:04;5.75;;;1.48;;
75932;SDS011;64803;52.356;5.310;2023-08-08T08:38:30;2.50;;;0.60;;
75932;SDS011;64803;52.356;5.310;2023-08-08T08:40:56;3.53;;;0.85;;
75932;SDS011;64803;52.356;5.310;2023-08-08T08:43:23;1.85;;;0.50;;
75932;SDS011;64803;52.356;5.310;2023-08-08T08:45:50;3.45;;;0.68;;
75932;SDS011;64803;52.356;5.310;2023-08-08T08:48:19;5.18;;;0.98;;
75932;SDS011;64803;52.356;5.310;2023-08-08T08:50:47;3.72;;;0.60;;
75932;SDS011;64803;52.356;5.310;2023-08-08T08:53:14;5.85;;;0.63;;
75932;SDS011;64803;52.356;5.310;2023-08-08T08:55:41;2.20;;;0.50;;
75932;SDS011;64803;52.356;5.310;2023-08-08T08:58:07;4.57;;;0.60;;
75932;SDS011;64803;52.356;5.310;2023-08-08T09:03:01;1.33;;;0.35;;
75932;SDS011;64803;52.356;5.310;2023-08-08T09:05:27;3.53;;;0.70;;
75932;SDS011;64803;52.356;5.310;2023-08-08T09:07:54;2.72;;;0.70;;
75932;SDS011;64803;52.356;5.310;2023-08-08T09:10:20;1.35;;;0.40;;
75932;SDS011;64803;52.356;5.310;2023-08-08T09:12:46;2.35;;;0.55;;
75932;SDS011;64803;52.356;5.310;2023-08-08T09:15:12;2.40;;;0.60;;
75932;SDS011;64803;52.356;5.310;2023-08-08T09:17:42;2.85;;;0.63;;
75932;SDS011;64803;52.356;5.310;2023-08-08T09:20:09;3.35;;;0.77;;
75932;SDS011;64803;52.356;5.310;2023-08-08T09:22:37;1.20;;;0.65;;
75932;SDS011;64803;52.356;5.310;2023-08-08T09:25:04;1.92;;;0.40;;
75932;SDS011;64803;52.356;5.310;2023-08-08T09:27:31;4.93;;;1.13;;
75932;SDS011;64803;52.356;5.310;2023-08-08T09:29:57;2.40;;;0.70;;
75932;SDS011;64803;52.356;5.310;2023-08-08T09:32:28;3.53;;;0.70;;
75932;SDS011;64803;52.356;5.310;2023-08-08T09:34:57;3.75;;;0.85;;
75932;SDS011;64803;52.356;5.310;2023-08-08T09:37:24;1.92;;;0.43;;
75932;SDS011;64803;52.356;5.310;2023-08-08T09:39:58;3.40;;;0.70;;
75932;SDS011;64803;52.356;5.310;2023-08-08T09:46:56;4.18;;;0.95;;
75932;SDS011;64803;52.356;5.310;2023-08-08T09:51:06;5.45;;;0.73;;
75932;SDS011;64803;52.356;5.310;2023-08-08T11:03:38;5.03;;;1.10;;
75932;SDS011;64803;52.356;5.310;2023-08-08T11:28:22;2.38;;;0.60;;
75932;SDS011;64803;52.356;5.310;2023-08-08T12:14:37;3.20;;;0.68;;
75932;SDS011;64803;52.356;5.310;2023-08-08T12:17:03;2.75;;;0.80;;
75932;SDS011;64803;52.356;5.310;2023-08-08T12:19:30;6.63;;;0.90;;
75932;SDS011;64803;52.356;5.310;2023-08-08T12:21:56;3.88;;;1.00;;
75932;SDS011;64803;52.356;5.310;2023-08-08T12:24:22;2.15;;;0.63;;
75932;SDS011;64803;52.356;5.310;2023-08-08T12:26:48;3.00;;;0.73;;
75932;SDS011;64803;52.356;5.310;2023-08-08T12:29:15;4.55;;;0.88;;
75932;SDS011;64803;52.356;5.310;2023-08-08T12:31:41;4.80;;;1.00;;
75932;SDS011;64803;52.356;5.310;2023-08-08T12:34:07;3.40;;;0.70;;
75932;SDS011;64803;52.356;5.310;2023-08-08T12:36:34;2.90;;;0.55;;
75932;SDS011;64803;52.356;5.310;2023-08-08T12:39:00;1.80;;;0.63;;
75932;SDS011;64803;52.356;5.310;2023-08-08T12:41:26;1.85;;;0.50;;
75932;SDS011;64803;52.356;5.310;2023-08-08T12:43:52;2.83;;;0.52;;
75932;SDS011;64803;52.356;5.310;2023-08-08T12:46:18;3.67;;;1.08;;
75932;SDS011;64803;52.356;5.310;2023-08-08T12:48:44;2.67;;;0.75;;
75932;SDS011;64803;52.356;5.310;2023-08-08T12:51:10;4.07;;;0.70;;
75932;SDS011;64803;52.356;5.310;2023-08-08T12:53:36;2.67;;;0.90;;
75932;SDS011;64803;52.356;5.310;2023-08-08T12:56:02;4.22;;;0.70;;
75932;SDS011;64803;52.356;5.310;2023-08-08T12:58:28;1.92;;;0.63;;
75932;SDS011;64803;52.356;5.310;2023-08-08T13:00:55;4.05;;;1.02;;
75932;SDS011;64803;52.356;5.310;2023-08-08T13:03:21;2.83;;;0.52;;
75932;SDS011;64803;52.356;5.310;2023-08-08T13:05:47;1.27;;;0.45;;
75932;SDS011;64803;52.356;5.310;2023-08-08T13:08:13;4.88;;;0.85;;
75932;SDS011;64803;52.356;5.310;2023-08-08T13:10:40;2.80;;;0.73;;
75932;SDS011;64803;52.356;5.310;2023-08-08T13:13:06;2.78;;;0.60;;
75932;SDS011;64803;52.356;5.310;2023-08-08T13:15:33;3.50;;;0.80;;
75932;SDS011;64803;52.356;5.310;2023-08-08T13:17:58;1.77;;;0.47;;
75932;SDS011;64803;52.356;5.310;2023-08-08T13:20:25;5.68;;;0.73;;
75932;SDS011;64803;52.356;5.310;2023-08-08T13:22:51;6.60;;;0.82;;
75932;SDS011;64803;52.356;5.310;2023-08-08T13:25:18;3.30;;;0.80;;
75932;SDS011;64803;52.356;5.310;2023-08-08T13:27:46;1.73;;;0.70;;
75932;SDS011;64803;52.356;5.310;2023-08-08T13:30:13;6.15;;;1.20;;
75932;SDS011;64803;52.356;5.310;2023-08-08T13:32:41;4.10;;;0.90;;
75932;SDS011;64803;52.356;5.310;2023-08-08T13:35:07;4.13;;;0.93;;
75932;SDS011;64803;52.356;5.310;2023-08-08T13:37:34;2.97;;;0.65;;
75932;SDS011;64803;52.356;5.310;2023-08-08T13:40:00;6.35;;;0.60;;
75932;SDS011;64803;52.356;5.310;2023-08-08T13:42:26;1.77;;;0.52;;
75932;SDS011;64803;52.356;5.310;2023-08-08T13:44:52;4.60;;;1.00;;
75932;SDS011;64803;52.356;5.310;2023-08-08T13:47:18;2.17;;;0.73;;
75932;SDS011;64803;52.356;5.310;2023-08-08T13:49:44;2.78;;;0.70;;
75932;SDS011;64803;52.356;5.310;2023-08-08T13:52:10;2.33;;;0.70;;
75932;SDS011;64803;52.356;5.310;2023-08-08T13:54:36;6.47;;;0.90;;
75932;SDS011;64803;52.356;5.310;2023-08-08T13:57:02;5.32;;;1.33;;
75932;SDS011;64803;52.356;5.310;2023-08-08T13:59:28;6.22;;;0.82;;
75932;SDS011;64803;52.356;5.310;2023-08-08T14:01:54;2.47;;;0.60;;
75932;SDS011;64803;52.356;5.310;2023-08-08T14:04:20;3.38;;;0.95;;
75932;SDS011;64803;52.356;5.310;2023-08-08T14:06:46;2.78;;;0.60;;
75932;SDS011;64803;52.356;5.310;2023-08-08T14:09:12;1.25;;;0.40;;
75932;SDS011;64803;52.356;5.310;2023-08-08T14:11:38;2.50;;;0.63;;
75932;SDS011;64803;52.356;5.310;2023-08-08T14:14:04;3.90;;;0.90;;
75932;SDS011;64803;52.356;5.310;2023-08-08T14:16:30;2.60;;;0.70;;
75932;SDS011;64803;52.356;5.310;2023-08-08T14:18:56;2.70;;;1.00;;
75932;SDS011;64803;52.356;5.310;2023-08-08T14:21:22;3.05;;;0.60;;
75932;SDS011;64803;52.356;5.310;2023-08-08T14:23:48;4.05;;;0.70;;
75932;SDS011;64803;52.356;5.310;2023-08-08T14:26:14;3.05;;;0.95;;
75932;SDS011;64803;52.356;5.310;2023-08-08T14:28:40;3.38;;;0.90;;
75932;SDS011;64803;52.356;5.310;2023-08-08T14:31:06;6.40;;;1.10;;
75932;SDS011;64803;52.356;5.310;2023-08-08T14:33:33;5.55;;;1.00;;
75932;SDS011;64803;52.356;5.310;2023-08-08T14:35:59;4.45;;;1.30;;
75932;SDS011;64803;52.356;5.310;2023-08-08T14:38:25;2.28;;;0.57;;
75932;SDS011;64803;52.356;5.310;2023-08-08T14:40:51;3.75;;;0.75;;
75932;SDS011;64803;52.356;5.310;2023-08-08T14:43:20;4.07;;;0.82;;
75932;SDS011;64803;52.356;5.310;2023-08-08T14:45:49;5.20;;;1.15;;
75932;SDS011;64803;52.356;5.310;2023-08-08T14:48:14;4.82;;;1.10;;
75932;SDS011;64803;52.356;5.310;2023-08-08T14:50:40;3.45;;;0.75;;
75932;SDS011;64803;52.356;5.310;2023-08-08T14:53:07;4.63;;;1.00;;
75932;SDS011;64803;52.356;5.310;2023-08-08T14:55:32;2.05;;;0.65;;
75932;SDS011;64803;52.356;5.310;2023-08-08T14:57:58;5.22;;;0.88;;
75932;SDS011;64803;52.356;5.310;2023-08-08T15:00:24;3.13;;;0.82;;
75932;SDS011;64803;52.356;5.310;2023-08-08T15:02:50;3.22;;;0.80;;
75932;SDS011;64803;52.356;5.310;2023-08-08T15:05:16;6.10;;;0.93;;
75932;SDS011;64803;52.356;5.310;2023-08-08T15:07:42;8.10;;;1.17;;
75932;SDS011;64803;52.356;5.310;2023-08-08T15:10:08;6.28;;;0.90;;
75932;SDS011;64803;52.356;5.310;2023-08-08T15:12:35;6.18;;;1.08;;
75932;SDS011;64803;52.356;5.310;2023-08-08T15:15:02;1.95;;;0.70;;
75932;SDS011;64803;52.356;5.310;2023-08-08T15:17:29;8.23;;;0.90;;
75932;SDS011;64803;52.356;5.310;2023-08-08T15:19:55;4.05;;;0.85;;
75932;SDS011;64803;52.356;5.310;2023-08-08T15:22:21;4.38;;;1.02;;
75932;SDS011;64803;52.356;5.310;2023-08-08T15:24:47;4.28;;;1.00;;
75932;SDS011;64803;52.356;5.310;2023-08-08T15:27:13;4.18;;;1.13;;
75932;SDS011;64803;52.356;5.310;2023-08-08T15:29:39;7.18;;;1.35;;
75932;SDS011;64803;52.356;5.310;2023-08-08T15:32:05;5.35;;;1.10;;
75932;SDS011;64803;52.356;5.310;2023-08-08T15:34:31;4.80;;;1.10;;
75932;SDS011;64803;52.356;5.310;2023-08-08T15:36:57;4.63;;;1.00;;
75932;SDS011;64803;52.356;5.310;2023-08-08T15:39:24;3.80;;;0.90;;
75932;SDS011;64803;52.356;5.310;2023-08-08T15:41:50;3.40;;;1.00;;
75932;SDS011;64803;52.356;5.310;2023-08-08T15:44:16;2.42;;;0.70;;
75932;SDS011;64803;52.356;5.310;2023-08-08T15:46:42;3.10;;;0.90;;
75932;SDS011;64803;52.356;5.310;2023-08-08T15:49:08;3.05;;;0.90;;
75932;SDS011;64803;52.356;5.310;2023-08-08T15:51:41;5.75;;;0.98;;
75932;SDS011;64803;52.356;5.310;2023-08-08T15:54:07;2.92;;;0.73;;
75932;SDS011;64803;52.356;5.310;2023-08-08T15:56:33;2.85;;;0.70;;
75932;SDS011;64803;52.356;5.310;2023-08-08T15:59:01;4.32;;;0.65;;
75932;SDS011;64803;52.356;5.310;2023-08-08T16:01:27;4.35;;;1.08;;
75932;SDS011;64803;52.356;5.310;2023-08-08T16:03:53;3.03;;;0.70;;
75932;SDS011;64803;52.356;5.310;2023-08-08T16:06:19;6.95;;;1.33;;
75932;SDS011;64803;52.356;5.310;2023-08-08T16:08:45;3.22;;;0.70;;
75932;SDS011;64803;52.356;5.310;2023-08-08T16:11:11;4.93;;;0.93;;
75932;SDS011;64803;52.356;5.310;2023-08-08T16:13:37;5.72;;;1.00;;
75932;SDS011;64803;52.356;5.310;2023-08-08T16:16:03;5.93;;;0.80;;
75932;SDS011;64803;52.356;5.310;2023-08-08T16:18:29;3.78;;;0.90;;
75932;SDS011;64803;52.356;5.310;2023-08-08T16:20:56;2.90;;;0.80;;
75932;SDS011;64803;52.356;5.310;2023-08-08T16:23:22;5.43;;;1.20;;
75932;SDS011;64803;52.356;5.310;2023-08-08T16:25:48;4.78;;;1.05;;
75932;SDS011;64803;52.356;5.310;2023-08-08T16:28:14;7.10;;;0.90;;
75932;SDS011;64803;52.356;5.310;2023-08-08T16:30:40;2.15;;;0.60;;
75932;SDS011;64803;52.356;5.310;2023-08-08T16:33:06;3.13;;;0.90;;
75932;SDS011;64803;52.356;5.310;2023-08-08T16:35:33;3.47;;;1.00;;
75932;SDS011;64803;52.356;5.310;2023-08-08T16:37:59;4.30;;;0.77;;
75932;SDS011;64803;52.356;5.310;2023-08-08T16:40:25;7.45;;;1.20;;
75932;SDS011;64803;52.356;5.310;2023-08-08T16:42:51;3.78;;;1.08;;
75932;SDS011;64803;52.356;5.310;2023-08-08T16:45:17;4.25;;;0.80;;
75932;SDS011;64803;52.356;5.310;2023-08-08T16:47:44;3.92;;;1.00;;
75932;SDS011;64803;52.356;5.310;2023-08-08T16:50:11;4.80;;;1.30;;
75932;SDS011;64803;52.356;5.310;2023-08-08T16:52:37;5.38;;;0.80;;
75932;SDS011;64803;52.356;5.310;2023-08-08T16:55:03;4.82;;;1.35;;
75932;SDS011;64803;52.356;5.310;2023-08-08T16:57:29;5.90;;;1.00;;
75932;SDS011;64803;52.356;5.310;2023-08-08T16:59:55;7.72;;;1.10;;
75932;SDS011;64803;52.356;5.310;2023-08-08T17:02:21;3.30;;;1.20;;
75932;SDS011;64803;52.356;5.310;2023-08-08T17:04:47;5.00;;;1.08;;
75932;SDS011;64803;52.356;5.310;2023-08-08T17:07:14;6.00;;;1.00;;
75932;SDS011;64803;52.356;5.310;2023-08-08T17:09:40;5.60;;;1.70;;
75932;SDS011;64803;52.356;5.310;2023-08-08T17:12:06;6.30;;;1.63;;
75932;SDS011;64803;52.356;5.310;2023-08-08T17:14:33;6.05;;;1.00;;
75932;SDS011;64803;52.356;5.310;2023-08-08T17:16:59;5.15;;;0.80;;
75932;SDS011;64803;52.356;5.310;2023-08-08T17:19:25;5.05;;;1.25;;
75932;SDS011;64803;52.356;5.310;2023-08-08T17:21:51;6.50;;;1.10;;
75932;SDS011;64803;52.356;5.310;2023-08-08T17:24:17;6.88;;;1.42;;
75932;SDS011;64803;52.356;5.310;2023-08-08T17:26:44;6.65;;;1.70;;
75932;SDS011;64803;52.356;5.310;2023-08-08T17:29:10;6.88;;;1.30;;
75932;SDS011;64803;52.356;5.310;2023-08-08T17:31:36;6.15;;;1.50;;
75932;SDS011;64803;52.356;5.310;2023-08-08T17:34:02;7.80;;;1.67;;
75932;SDS011;64803;52.356;5.310;2023-08-08T17:36:31;5.95;;;1.50;;
75932;SDS011;64803;52.356;5.310;2023-08-08T17:39:00;6.90;;;1.75;;
75932;SDS011;64803;52.356;5.310;2023-08-08T17:41:26;6.40;;;1.58;;
75932;SDS011;64803;52.356;5.310;2023-08-08T17:43:52;3.70;;;0.85;;
75932;SDS011;64803;52.356;5.310;2023-08-08T17:46:19;5.35;;;1.52;;
75932;SDS011;64803;52.356;5.310;2023-08-08T17:48:45;5.15;;;1.30;;
75932;SDS011;64803;52.356;5.310;2023-08-08T17:51:11;7.40;;;1.70;;